sensor_id;sensor_type;location;lat;lon;timestamp;P1;durP1;ratioP1;P2;durP2;ratioP2
48945;SDS011;34999;50.940;3.998;2023-07-29T00:01:06;2.00;;;1.90;;
48945;SDS011;34999;50.940;3.998;2023-07-29T00:03:34;1.83;;;1.60;;
48945;SDS011;34999;50.940;3.998;2023-07-29T00:06:03;1.70;;;1.60;;
48945;SDS011;34999;50.940;3.998;2023-07-29T00:08:31;1.80;;;1.80;;
48945;SDS011;34999;50.940;3.998;2023-07-29T00:10:59;2.10;;;1.90;;
48945;SDS011;34999;50.940;3.998;2023-07-29T00:13:29;1.87;;;1.77;;
48945;SDS011;34999;50.940;3.998;2023-07-29T00:15:57;2.17;;;2.07;;
48945;SDS011;34999;50.940;3.998;2023-07-29T00:18:25;3.37;;;2.03;;
48945;SDS011;34999;50.940;3.998;2023-07-29T00:20:54;1.60;;;1.60;;
48945;SDS011;34999;50.940;3.998;2023-07-29T00:23:24;1.90;;;1.80;;
48945;SDS011;34999;50.940;3.998;2023-07-29T00:25:52;1.67;;;1.67;;
48945;SDS011;34999;50.940;3.998;2023-07-29T00:28:20;2.13;;;1.90;;
48945;SDS011;34999;50.940;3.998;2023-07-29T00:30:50;2.40;;;2.30;;
48945;SDS011;34999;50.940;3.998;2023-07-29T00:33:18;2.37;;;2.13;;
48945;SDS011;34999;50.940;3.998;2023-07-29T00:35:47;3.13;;;2.23;;
48945;SDS011;34999;50.940;3.998;2023-07-29T00:38:16;5.57;;;2.60;;
48945;SDS011;34999;50.940;3.998;2023-07-29T00:40:44;2.50;;;2.30;;
48945;SDS011;34999;50.940;3.998;2023-07-29T00:43:13;3.97;;;2.47;;
48945;SDS011;34999;50.940;3.998;2023-07-29T00:45:41;2.80;;;2.50;;
48945;SDS011;34999;50.940;3.998;2023-07-29T00:48:13;2.50;;;2.40;;
48945;SDS011;34999;50.940;3.998;2023-07-29T00:50:42;2.73;;;2.53;;
48945;SDS011;34999;50.940;3.998;2023-07-29T00:53:10;2.80;;;2.60;;
48945;SDS011;34999;50.940;3.998;2023-07-29T00:55:39;2.47;;;2.37;;
48945;SDS011;34999;50.940;3.998;2023-07-29T00:58:08;2.53;;;2.37;;
48945;SDS011;34999;50.940;3.998;2023-07-29T01:00:36;2.90;;;2.67;;
48945;SDS011;34999;50.940;3.998;2023-07-29T01:03:05;3.90;;;2.73;;
48945;SDS011;34999;50.940;3.998;2023-07-29T01:05:36;3.30;;;2.60;;
48945;SDS011;34999;50.940;3.998;2023-07-29T01:08:14;2.60;;;2.50;;
48945;SDS011;34999;50.940;3.998;2023-07-29T01:10:51;3.03;;;2.40;;
48945;SDS011;34999;50.940;3.998;2023-07-29T01:13:26;3.03;;;2.40;;
48945;SDS011;34999;50.940;3.998;2023-07-29T01:16:00;2.50;;;2.30;;
48945;SDS011;34999;50.940;3.998;2023-07-29T01:18:32;2.03;;;2.00;;
48945;SDS011;34999;50.940;3.998;2023-07-29T01:21:08;2.30;;;2.20;;
48945;SDS011;34999;50.940;3.998;2023-07-29T01:23:40;2.30;;;2.20;;
48945;SDS011;34999;50.940;3.998;2023-07-29T01:26:08;2.57;;;2.37;;
48945;SDS011;34999;50.940;3.998;2023-07-29T01:28:36;2.40;;;2.30;;
48945;SDS011;34999;50.940;3.998;2023-07-29T01:31:07;2.50;;;2.30;;
48945;SDS011;34999;50.940;3.998;2023-07-29T01:33:40;3.13;;;2.23;;
48945;SDS011;34999;50.940;3.998;2023-07-29T01:36:15;2.70;;;2.53;;
48945;SDS011;34999;50.940;3.998;2023-07-29T01:38:47;2.50;;;2.40;;
48945;SDS011;34999;50.940;3.998;2023-07-29T01:41:17;2.50;;;2.40;;
48945;SDS011;34999;50.940;3.998;2023-07-29T01:43:48;2.60;;;2.50;;
48945;SDS011;34999;50.940;3.998;2023-07-29T01:46:16;2.63;;;2.40;;
48945;SDS011;34999;50.940;3.998;2023-07-29T01:48:45;2.73;;;2.60;;
48945;SDS011;34999;50.940;3.998;2023-07-29T01:51:13;2.73;;;2.50;;
48945;SDS011;34999;50.940;3.998;2023-07-29T01:53:41;2.50;;;2.40;;
48945;SDS011;34999;50.940;3.998;2023-07-29T01:56:11;2.80;;;2.37;;
48945;SDS011;34999;50.940;3.998;2023-07-29T01:58:39;3.20;;;2.47;;
48945;SDS011;34999;50.940;3.998;2023-07-29T02:01:08;2.40;;;2.20;;
48945;SDS011;34999;50.940;3.998;2023-07-29T02:03:36;2.33;;;2.23;;
48945;SDS011;34999;50.940;3.998;2023-07-29T02:06:04;2.70;;;2.50;;
48945;SDS011;34999;50.940;3.998;2023-07-29T02:08:33;2.53;;;2.33;;
48945;SDS011;34999;50.940;3.998;2023-07-29T02:11:01;3.17;;;2.73;;
48945;SDS011;34999;50.940;3.998;2023-07-29T02:13:31;3.07;;;2.90;;
48945;SDS011;34999;50.940;3.998;2023-07-29T02:15:59;2.93;;;2.70;;
48945;SDS011;34999;50.940;3.998;2023-07-29T02:18:27;3.47;;;2.90;;
48945;SDS011;34999;50.940;3.998;2023-07-29T02:20:55;3.20;;;2.90;;
48945;SDS011;34999;50.940;3.998;2023-07-29T02:23:24;2.93;;;2.50;;
48945;SDS011;34999;50.940;3.998;2023-07-29T02:25:52;2.93;;;2.73;;
48945;SDS011;34999;50.940;3.998;2023-07-29T02:28:21;2.37;;;2.23;;
48945;SDS011;34999;50.940;3.998;2023-07-29T02:31:08;3.00;;;2.80;;
48945;SDS011;34999;50.940;3.998;2023-07-29T02:33:38;2.50;;;2.40;;
48945;SDS011;34999;50.940;3.998;2023-07-29T02:36:06;2.67;;;2.57;;
48945;SDS011;34999;50.940;3.998;2023-07-29T02:38:35;2.53;;;2.43;;
48945;SDS011;34999;50.940;3.998;2023-07-29T02:41:03;2.27;;;2.17;;
48945;SDS011;34999;50.940;3.998;2023-07-29T02:43:31;2.47;;;2.37;;
48945;SDS011;34999;50.940;3.998;2023-07-29T02:46:01;5.00;;;2.60;;
48945;SDS011;34999;50.940;3.998;2023-07-29T02:48:30;3.77;;;3.17;;
48945;SDS011;34999;50.940;3.998;2023-07-29T02:50:58;2.80;;;2.70;;
48945;SDS011;34999;50.940;3.998;2023-07-29T02:53:26;3.73;;;2.60;;
48945;SDS011;34999;50.940;3.998;2023-07-29T02:55:55;3.07;;;2.53;;
48945;SDS011;34999;50.940;3.998;2023-07-29T02:58:23;3.80;;;2.43;;
48945;SDS011;34999;50.940;3.998;2023-07-29T03:00:52;2.57;;;2.37;;
48945;SDS011;34999;50.940;3.998;2023-07-29T03:03:22;2.70;;;2.60;;
48945;SDS011;34999;50.940;3.998;2023-07-29T03:05:56;2.60;;;2.40;;
48945;SDS011;34999;50.940;3.998;2023-07-29T03:08:26;3.73;;;2.40;;
48945;SDS011;34999;50.940;3.998;2023-07-29T03:10:55;2.57;;;2.40;;
48945;SDS011;34999;50.940;3.998;2023-07-29T03:13:23;2.20;;;2.20;;
48945;SDS011;34999;50.940;3.998;2023-07-29T03:15:52;2.30;;;2.20;;
48945;SDS011;34999;50.940;3.998;2023-07-29T03:18:20;3.30;;;2.20;;
48945;SDS011;34999;50.940;3.998;2023-07-29T03:20:50;2.50;;;2.30;;
48945;SDS011;34999;50.940;3.998;2023-07-29T03:23:18;3.23;;;2.13;;
48945;SDS011;34999;50.940;3.998;2023-07-29T03:25:48;4.87;;;2.57;;
48945;SDS011;34999;50.940;3.998;2023-07-29T03:28:17;2.50;;;2.30;;
48945;SDS011;34999;50.940;3.998;2023-07-29T03:30:46;2.53;;;2.40;;
48945;SDS011;34999;50.940;3.998;2023-07-29T03:33:14;2.40;;;2.20;;
48945;SDS011;34999;50.940;3.998;2023-07-29T03:35:44;2.63;;;2.37;;
48945;SDS011;34999;50.940;3.998;2023-07-29T03:38:12;2.60;;;2.40;;
48945;SDS011;34999;50.940;3.998;2023-07-29T03:40:41;2.30;;;2.30;;
48945;SDS011;34999;50.940;3.998;2023-07-29T03:43:10;2.80;;;2.20;;
48945;SDS011;34999;50.940;3.998;2023-07-29T03:45:38;2.60;;;2.50;;
48945;SDS011;34999;50.940;3.998;2023-07-29T03:48:07;3.43;;;2.80;;
48945;SDS011;34999;50.940;3.998;2023-07-29T03:50:36;2.47;;;2.37;;
48945;SDS011;34999;50.940;3.998;2023-07-29T03:53:06;2.37;;;2.27;;
48945;SDS011;34999;50.940;3.998;2023-07-29T03:55:36;2.73;;;2.53;;
48945;SDS011;34999;50.940;3.998;2023-07-29T03:58:04;2.47;;;2.37;;
48945;SDS011;34999;50.940;3.998;2023-07-29T04:00:33;2.50;;;2.40;;
48945;SDS011;34999;50.940;3.998;2023-07-29T04:03:01;7.23;;;2.93;;
48945;SDS011;34999;50.940;3.998;2023-07-29T04:05:29;3.50;;;2.53;;
48945;SDS011;34999;50.940;3.998;2023-07-29T04:07:58;2.43;;;2.30;;
48945;SDS011;34999;50.940;3.998;2023-07-29T04:10:27;3.13;;;2.90;;
48945;SDS011;34999;50.940;3.998;2023-07-29T04:12:58;2.90;;;2.60;;
48945;SDS011;34999;50.940;3.998;2023-07-29T04:15:26;2.70;;;2.53;;
48945;SDS011;34999;50.940;3.998;2023-07-29T04:17:54;2.70;;;2.60;;
48945;SDS011;34999;50.940;3.998;2023-07-29T04:20:23;6.83;;;2.80;;
48945;SDS011;34999;50.940;3.998;2023-07-29T04:22:51;2.73;;;2.63;;
48945;SDS011;34999;50.940;3.998;2023-07-29T04:25:20;2.70;;;2.50;;
48945;SDS011;34999;50.940;3.998;2023-07-29T04:27:49;2.57;;;2.47;;
48945;SDS011;34999;50.940;3.998;2023-07-29T04:30:18;2.70;;;2.50;;
48945;SDS011;34999;50.940;3.998;2023-07-29T04:32:46;3.07;;;2.80;;
48945;SDS011;34999;50.940;3.998;2023-07-29T04:35:15;3.50;;;2.40;;
48945;SDS011;34999;50.940;3.998;2023-07-29T04:37:45;2.97;;;2.77;;
48945;SDS011;34999;50.940;3.998;2023-07-29T04:40:15;2.60;;;2.40;;
48945;SDS011;34999;50.940;3.998;2023-07-29T04:42:45;4.00;;;2.90;;
48945;SDS011;34999;50.940;3.998;2023-07-29T04:45:14;2.83;;;2.60;;
48945;SDS011;34999;50.940;3.998;2023-07-29T04:47:43;2.80;;;2.60;;
48945;SDS011;34999;50.940;3.998;2023-07-29T04:50:12;3.07;;;2.30;;
48945;SDS011;34999;50.940;3.998;2023-07-29T04:52:40;2.83;;;2.50;;
48945;SDS011;34999;50.940;3.998;2023-07-29T04:55:09;2.87;;;2.57;;
48945;SDS011;34999;50.940;3.998;2023-07-29T04:57:38;4.47;;;2.87;;
48945;SDS011;34999;50.940;3.998;2023-07-29T05:00:07;2.73;;;2.50;;
48945;SDS011;34999;50.940;3.998;2023-07-29T05:02:37;2.97;;;2.70;;
48945;SDS011;34999;50.940;3.998;2023-07-29T05:05:06;2.47;;;2.30;;
48945;SDS011;34999;50.940;3.998;2023-07-29T05:07:35;2.70;;;2.50;;
48945;SDS011;34999;50.940;3.998;2023-07-29T05:10:03;3.50;;;2.50;;
48945;SDS011;34999;50.940;3.998;2023-07-29T05:12:32;2.83;;;2.60;;
48945;SDS011;34999;50.940;3.998;2023-07-29T05:15:01;2.50;;;2.30;;
48945;SDS011;34999;50.940;3.998;2023-07-29T05:17:29;4.93;;;2.63;;
48945;SDS011;34999;50.940;3.998;2023-07-29T05:19:59;2.57;;;2.40;;
48945;SDS011;34999;50.940;3.998;2023-07-29T05:22:27;3.23;;;3.00;;
48945;SDS011;34999;50.940;3.998;2023-07-29T05:24:57;4.10;;;2.60;;
48945;SDS011;34999;50.940;3.998;2023-07-29T05:27:25;2.70;;;2.50;;
48945;SDS011;34999;50.940;3.998;2023-07-29T05:29:53;2.90;;;2.40;;
48945;SDS011;34999;50.940;3.998;2023-07-29T05:32:22;3.23;;;2.87;;
48945;SDS011;34999;50.940;3.998;2023-07-29T05:34:50;2.40;;;2.30;;
48945;SDS011;34999;50.940;3.998;2023-07-29T05:37:20;2.67;;;2.43;;
48945;SDS011;34999;50.940;3.998;2023-07-29T05:39:48;4.17;;;2.50;;
48945;SDS011;34999;50.940;3.998;2023-07-29T05:42:16;2.10;;;2.10;;
48945;SDS011;34999;50.940;3.998;2023-07-29T05:44:45;2.20;;;2.10;;
48945;SDS011;34999;50.940;3.998;2023-07-29T05:47:13;2.57;;;2.47;;
48945;SDS011;34999;50.940;3.998;2023-07-29T05:49:42;2.27;;;2.07;;
48945;SDS011;34999;50.940;3.998;2023-07-29T05:52:10;2.20;;;2.10;;
48945;SDS011;34999;50.940;3.998;2023-07-29T05:54:40;1.97;;;1.87;;
48945;SDS011;34999;50.940;3.998;2023-07-29T05:57:09;2.53;;;2.37;;
48945;SDS011;34999;50.940;3.998;2023-07-29T05:59:38;2.30;;;1.87;;
48945;SDS011;34999;50.940;3.998;2023-07-29T06:02:06;1.87;;;1.77;;
48945;SDS011;34999;50.940;3.998;2023-07-29T06:04:35;3.50;;;1.93;;
48945;SDS011;34999;50.940;3.998;2023-07-29T06:07:03;2.03;;;1.80;;
48945;SDS011;34999;50.940;3.998;2023-07-29T06:09:32;1.90;;;1.80;;
48945;SDS011;34999;50.940;3.998;2023-07-29T06:12:02;1.83;;;1.73;;
48945;SDS011;34999;50.940;3.998;2023-07-29T06:14:31;2.40;;;1.67;;
48945;SDS011;34999;50.940;3.998;2023-07-29T06:16:59;2.10;;;2.00;;
48945;SDS011;34999;50.940;3.998;2023-07-29T06:19:28;3.33;;;2.00;;
48945;SDS011;34999;50.940;3.998;2023-07-29T06:21:56;2.70;;;2.00;;
48945;SDS011;34999;50.940;3.998;2023-07-29T06:24:24;2.27;;;2.07;;
48945;SDS011;34999;50.940;3.998;2023-07-29T06:26:53;2.30;;;2.10;;
48945;SDS011;34999;50.940;3.998;2023-07-29T06:29:22;2.10;;;2.00;;
48945;SDS011;34999;50.940;3.998;2023-07-29T06:31:50;2.20;;;2.10;;
48945;SDS011;34999;50.940;3.998;2023-07-29T06:34:19;2.20;;;2.10;;
48945;SDS011;34999;50.940;3.998;2023-07-29T06:36:51;2.00;;;1.90;;
48945;SDS011;34999;50.940;3.998;2023-07-29T06:39:19;2.30;;;2.07;;
48945;SDS011;34999;50.940;3.998;2023-07-29T06:41:48;3.17;;;1.80;;
48945;SDS011;34999;50.940;3.998;2023-07-29T06:44:16;1.80;;;1.70;;
48945;SDS011;34999;50.940;3.998;2023-07-29T06:46:46;2.77;;;2.20;;
48945;SDS011;34999;50.940;3.998;2023-07-29T06:49:15;2.40;;;2.00;;
48945;SDS011;34999;50.940;3.998;2023-07-29T06:51:43;1.73;;;1.73;;
48945;SDS011;34999;50.940;3.998;2023-07-29T06:54:11;2.43;;;2.20;;
48945;SDS011;34999;50.940;3.998;2023-07-29T06:56:40;5.03;;;2.10;;
48945;SDS011;34999;50.940;3.998;2023-07-29T06:59:08;2.03;;;1.70;;
48945;SDS011;34999;50.940;3.998;2023-07-29T07:01:36;1.77;;;1.77;;
48945;SDS011;34999;50.940;3.998;2023-07-29T07:04:06;2.03;;;1.93;;
48945;SDS011;34999;50.940;3.998;2023-07-29T07:06:34;1.93;;;1.83;;
48945;SDS011;34999;50.940;3.998;2023-07-29T07:09:03;2.17;;;2.00;;
48945;SDS011;34999;50.940;3.998;2023-07-29T07:11:31;2.20;;;2.00;;
48945;SDS011;34999;50.940;3.998;2023-07-29T07:14:00;2.10;;;2.00;;
48945;SDS011;34999;50.940;3.998;2023-07-29T07:16:28;3.03;;;2.20;;
48945;SDS011;34999;50.940;3.998;2023-07-29T07:18:57;5.37;;;2.20;;
48945;SDS011;34999;50.940;3.998;2023-07-29T07:21:26;2.20;;;2.10;;
48945;SDS011;34999;50.940;3.998;2023-07-29T07:23:55;2.37;;;1.90;;
48945;SDS011;34999;50.940;3.998;2023-07-29T07:26:23;2.13;;;2.03;;
48945;SDS011;34999;50.940;3.998;2023-07-29T07:28:51;1.90;;;1.80;;
48945;SDS011;34999;50.940;3.998;2023-07-29T07:31:19;1.83;;;1.80;;
48945;SDS011;34999;50.940;3.998;2023-07-29T07:33:48;1.87;;;1.77;;
48945;SDS011;34999;50.940;3.998;2023-07-29T07:36:16;1.93;;;1.83;;
48945;SDS011;34999;50.940;3.998;2023-07-29T07:38:46;1.90;;;1.80;;
48945;SDS011;34999;50.940;3.998;2023-07-29T07:41:14;1.73;;;1.60;;
48945;SDS011;34999;50.940;3.998;2023-07-29T07:43:42;2.77;;;1.90;;
48945;SDS011;34999;50.940;3.998;2023-07-29T07:46:11;1.90;;;1.80;;
48945;SDS011;34999;50.940;3.998;2023-07-29T07:48:39;1.90;;;1.73;;
48945;SDS011;34999;50.940;3.998;2023-07-29T07:51:10;1.60;;;1.50;;
48945;SDS011;34999;50.940;3.998;2023-07-29T07:53:39;3.10;;;1.90;;
48945;SDS011;34999;50.940;3.998;2023-07-29T07:56:09;2.37;;;1.77;;
48945;SDS011;34999;50.940;3.998;2023-07-29T07:58:38;2.40;;;2.00;;
48945;SDS011;34999;50.940;3.998;2023-07-29T08:01:06;1.40;;;1.40;;
48945;SDS011;34999;50.940;3.998;2023-07-29T08:03:36;3.03;;;1.70;;
48945;SDS011;34999;50.940;3.998;2023-07-29T08:06:05;1.80;;;1.70;;
48945;SDS011;34999;50.940;3.998;2023-07-29T08:08:36;2.00;;;1.73;;
48945;SDS011;34999;50.940;3.998;2023-07-29T08:11:04;4.27;;;1.60;;
48945;SDS011;34999;50.940;3.998;2023-07-29T08:13:34;3.40;;;1.33;;
48945;SDS011;34999;50.940;3.998;2023-07-29T08:16:03;1.80;;;1.30;;
48945;SDS011;34999;50.940;3.998;2023-07-29T08:18:31;1.67;;;1.57;;
48945;SDS011;34999;50.940;3.998;2023-07-29T08:21:00;2.40;;;1.23;;
48945;SDS011;34999;50.940;3.998;2023-07-29T08:23:30;2.80;;;1.40;;
48945;SDS011;34999;50.940;3.998;2023-07-29T08:26:00;2.35;;;1.13;;
48945;SDS011;34999;50.940;3.998;2023-07-29T08:28:31;2.75;;;1.73;;
48945;SDS011;34999;50.940;3.998;2023-07-29T08:31:03;1.40;;;1.30;;
48945;SDS011;34999;50.940;3.998;2023-07-29T08:33:32;2.10;;;1.30;;
48945;SDS011;34999;50.940;3.998;2023-07-29T08:36:04;5.63;;;1.60;;
48945;SDS011;34999;50.940;3.998;2023-07-29T08:38:32;1.35;;;1.35;;
48945;SDS011;34999;50.940;3.998;2023-07-29T08:41:04;1.52;;;1.40;;
48945;SDS011;34999;50.940;3.998;2023-07-29T08:43:38;1.55;;;1.50;;
48945;SDS011;34999;50.940;3.998;2023-07-29T08:46:08;1.63;;;1.52;;
48945;SDS011;34999;50.940;3.998;2023-07-29T08:48:39;1.87;;;1.77;;
48945;SDS011;34999;50.940;3.998;2023-07-29T08:51:09;1.43;;;1.43;;
48945;SDS011;34999;50.940;3.998;2023-07-29T08:53:38;3.93;;;1.70;;
48945;SDS011;34999;50.940;3.998;2023-07-29T08:56:07;1.67;;;1.60;;
48945;SDS011;34999;50.940;3.998;2023-07-29T08:58:37;1.50;;;1.40;;
48945;SDS011;34999;50.940;3.998;2023-07-29T09:01:06;1.57;;;1.50;;
48945;SDS011;34999;50.940;3.998;2023-07-29T09:03:34;1.40;;;1.40;;
48945;SDS011;34999;50.940;3.998;2023-07-29T09:06:04;1.60;;;1.50;;
48945;SDS011;34999;50.940;3.998;2023-07-29T09:08:34;1.63;;;1.63;;
48945;SDS011;34999;50.940;3.998;2023-07-29T09:11:03;1.63;;;1.63;;
48945;SDS011;34999;50.940;3.998;2023-07-29T09:13:31;2.07;;;1.97;;
48945;SDS011;34999;50.940;3.998;2023-07-29T09:16:01;2.17;;;2.00;;
48945;SDS011;34999;50.940;3.998;2023-07-29T09:18:31;2.00;;;1.90;;
48945;SDS011;34999;50.940;3.998;2023-07-29T09:21:00;1.50;;;1.50;;
48945;SDS011;34999;50.940;3.998;2023-07-29T09:23:37;2.20;;;1.70;;
48945;SDS011;34999;50.940;3.998;2023-07-29T09:26:07;2.17;;;2.07;;
48945;SDS011;34999;50.940;3.998;2023-07-29T09:28:36;2.30;;;2.20;;
48945;SDS011;34999;50.940;3.998;2023-07-29T09:31:06;2.10;;;2.00;;
48945;SDS011;34999;50.940;3.998;2023-07-29T09:33:46;1.80;;;1.80;;
48945;SDS011;34999;50.940;3.998;2023-07-29T09:36:14;3.20;;;1.80;;
48945;SDS011;34999;50.940;3.998;2023-07-29T09:38:44;2.53;;;2.07;;
48945;SDS011;34999;50.940;3.998;2023-07-29T09:41:12;1.53;;;1.43;;
48945;SDS011;34999;50.940;3.998;2023-07-29T09:43:43;2.23;;;1.90;;
48945;SDS011;34999;50.940;3.998;2023-07-29T09:46:12;1.70;;;1.70;;
48945;SDS011;34999;50.940;3.998;2023-07-29T09:48:41;1.60;;;1.60;;
48945;SDS011;34999;50.940;3.998;2023-07-29T09:51:12;1.87;;;1.77;;
48945;SDS011;34999;50.940;3.998;2023-07-29T09:53:41;1.80;;;1.70;;
48945;SDS011;34999;50.940;3.998;2023-07-29T09:56:13;1.70;;;1.70;;
48945;SDS011;34999;50.940;3.998;2023-07-29T09:58:42;3.90;;;2.03;;
48945;SDS011;34999;50.940;3.998;2023-07-29T10:01:13;4.27;;;2.33;;
48945;SDS011;34999;50.940;3.998;2023-07-29T10:03:42;1.70;;;1.60;;
48945;SDS011;34999;50.940;3.998;2023-07-29T10:06:12;1.87;;;1.87;;
48945;SDS011;34999;50.940;3.998;2023-07-29T10:08:47;2.03;;;1.80;;
48945;SDS011;34999;50.940;3.998;2023-07-29T10:11:16;1.77;;;1.67;;
48945;SDS011;34999;50.940;3.998;2023-07-29T10:13:47;2.00;;;1.90;;
48945;SDS011;34999;50.940;3.998;2023-07-29T10:16:34;5.70;;;2.30;;
48945;SDS011;34999;50.940;3.998;2023-07-29T10:19:05;1.90;;;1.80;;
48945;SDS011;34999;50.940;3.998;2023-07-29T10:21:35;2.30;;;2.20;;
48945;SDS011;34999;50.940;3.998;2023-07-29T10:24:09;2.27;;;2.17;;
48945;SDS011;34999;50.940;3.998;2023-07-29T10:26:42;2.37;;;2.27;;
48945;SDS011;34999;50.940;3.998;2023-07-29T10:29:13;2.43;;;2.20;;
48945;SDS011;34999;50.940;3.998;2023-07-29T10:31:45;2.83;;;2.63;;
48945;SDS011;34999;50.940;3.998;2023-07-29T10:34:14;2.23;;;2.10;;
48945;SDS011;34999;50.940;3.998;2023-07-29T10:36:43;3.43;;;1.83;;
48945;SDS011;34999;50.940;3.998;2023-07-29T10:39:13;1.90;;;1.80;;
48945;SDS011;34999;50.940;3.998;2023-07-29T10:41:57;1.90;;;1.80;;
48945;SDS011;34999;50.940;3.998;2023-07-29T10:47:17;2.60;;;1.53;;
48945;SDS011;34999;50.940;3.998;2023-07-29T10:49:49;1.80;;;1.70;;
48945;SDS011;34999;50.940;3.998;2023-07-29T10:52:29;5.20;;;1.33;;
48945;SDS011;34999;50.940;3.998;2023-07-29T10:54:59;1.40;;;1.30;;
48945;SDS011;34999;50.940;3.998;2023-07-29T10:57:31;1.10;;;1.10;;
48945;SDS011;34999;50.940;3.998;2023-07-29T11:00:01;1.10;;;1.10;;
48945;SDS011;34999;50.940;3.998;2023-07-29T11:02:35;1.00;;;1.00;;
48945;SDS011;34999;50.940;3.998;2023-07-29T11:05:07;3.70;;;1.77;;
48945;SDS011;34999;50.940;3.998;2023-07-29T11:07:45;1.30;;;1.30;;
48945;SDS011;34999;50.940;3.998;2023-07-29T11:10:14;1.50;;;1.50;;
48945;SDS011;34999;50.940;3.998;2023-07-29T11:12:44;1.50;;;1.50;;
48945;SDS011;34999;50.940;3.998;2023-07-29T11:15:15;1.30;;;1.30;;
48945;SDS011;34999;50.940;3.998;2023-07-29T11:17:51;1.40;;;1.40;;
48945;SDS011;34999;50.940;3.998;2023-07-29T11:20:21;1.50;;;1.50;;
48945;SDS011;34999;50.940;3.998;2023-07-29T11:22:52;1.40;;;1.40;;
48945;SDS011;34999;50.940;3.998;2023-07-29T11:25:21;1.83;;;1.73;;
48945;SDS011;34999;50.940;3.998;2023-07-29T11:27:51;6.63;;;1.70;;
48945;SDS011;34999;50.940;3.998;2023-07-29T11:30:20;1.67;;;1.67;;
48945;SDS011;34999;50.940;3.998;2023-07-29T11:32:53;1.60;;;1.50;;
48945;SDS011;34999;50.940;3.998;2023-07-29T11:35:22;1.57;;;1.57;;
48945;SDS011;34999;50.940;3.998;2023-07-29T11:37:51;1.50;;;1.47;;
48945;SDS011;34999;50.940;3.998;2023-07-29T11:40:23;1.80;;;1.70;;
48945;SDS011;34999;50.940;3.998;2023-07-29T11:42:52;1.40;;;1.30;;
48945;SDS011;34999;50.940;3.998;2023-07-29T11:45:21;1.20;;;1.20;;
48945;SDS011;34999;50.940;3.998;2023-07-29T11:48:06;1.50;;;1.40;;
48945;SDS011;34999;50.940;3.998;2023-07-29T11:50:34;1.33;;;1.33;;
48945;SDS011;34999;50.940;3.998;2023-07-29T11:53:03;1.33;;;1.23;;
48945;SDS011;34999;50.940;3.998;2023-07-29T11:55:32;1.20;;;1.20;;
48945;SDS011;34999;50.940;3.998;2023-07-29T11:58:01;1.53;;;1.50;;
48945;SDS011;34999;50.940;3.998;2023-07-29T12:00:30;1.40;;;1.30;;
48945;SDS011;34999;50.940;3.998;2023-07-29T12:02:59;1.10;;;1.10;;
48945;SDS011;34999;50.940;3.998;2023-07-29T12:05:29;1.30;;;1.30;;
48945;SDS011;34999;50.940;3.998;2023-07-29T12:07:58;1.70;;;1.20;;
48945;SDS011;34999;50.940;3.998;2023-07-29T12:10:26;1.20;;;1.20;;
48945;SDS011;34999;50.940;3.998;2023-07-29T12:12:59;1.40;;;1.40;;
48945;SDS011;34999;50.940;3.998;2023-07-29T12:15:30;1.33;;;1.33;;
48945;SDS011;34999;50.940;3.998;2023-07-29T12:17:59;2.80;;;1.40;;
48945;SDS011;34999;50.940;3.998;2023-07-29T12:20:30;1.40;;;1.40;;
48945;SDS011;34999;50.940;3.998;2023-07-29T12:22:59;1.57;;;1.20;;
48945;SDS011;34999;50.940;3.998;2023-07-29T12:25:29;1.67;;;1.57;;
48945;SDS011;34999;50.940;3.998;2023-07-29T12:28:01;2.30;;;1.30;;
48945;SDS011;34999;50.940;3.998;2023-07-29T12:30:30;1.10;;;1.10;;
48945;SDS011;34999;50.940;3.998;2023-07-29T12:32:59;1.03;;;1.03;;
48945;SDS011;34999;50.940;3.998;2023-07-29T12:35:35;1.50;;;1.40;;
48945;SDS011;34999;50.940;3.998;2023-07-29T12:38:04;1.20;;;1.10;;
48945;SDS011;34999;50.940;3.998;2023-07-29T12:40:37;1.30;;;1.30;;
48945;SDS011;34999;50.940;3.998;2023-07-29T12:43:06;1.30;;;1.20;;
48945;SDS011;34999;50.940;3.998;2023-07-29T12:45:35;1.40;;;1.30;;
48945;SDS011;34999;50.940;3.998;2023-07-29T12:48:06;1.33;;;1.30;;
48945;SDS011;34999;50.940;3.998;2023-07-29T12:50:36;1.10;;;1.10;;
48945;SDS011;34999;50.940;3.998;2023-07-29T12:53:06;1.10;;;1.10;;
48945;SDS011;34999;50.940;3.998;2023-07-29T12:55:36;1.30;;;1.20;;
48945;SDS011;34999;50.940;3.998;2023-07-29T12:58:04;1.30;;;1.30;;
48945;SDS011;34999;50.940;3.998;2023-07-29T13:00:33;2.65;;;1.40;;
48945;SDS011;34999;50.940;3.998;2023-07-29T13:03:01;1.40;;;1.27;;
48945;SDS011;34999;50.940;3.998;2023-07-29T13:05:32;1.10;;;1.10;;
48945;SDS011;34999;50.940;3.998;2023-07-29T13:08:04;2.10;;;1.07;;
48945;SDS011;34999;50.940;3.998;2023-07-29T13:10:37;1.20;;;1.10;;
48945;SDS011;34999;50.940;3.998;2023-07-29T13:13:07;1.17;;;1.17;;
48945;SDS011;34999;50.940;3.998;2023-07-29T13:15:39;1.23;;;1.23;;
48945;SDS011;34999;50.940;3.998;2023-07-29T13:18:28;1.20;;;1.20;;
48945;SDS011;34999;50.940;3.998;2023-07-29T13:21:03;1.17;;;1.17;;
48945;SDS011;34999;50.940;3.998;2023-07-29T13:23:33;1.17;;;1.17;;
48945;SDS011;34999;50.940;3.998;2023-07-29T13:26:01;1.70;;;1.30;;
48945;SDS011;34999;50.940;3.998;2023-07-29T13:28:30;1.20;;;1.20;;
48945;SDS011;34999;50.940;3.998;2023-07-29T13:30:58;1.10;;;1.10;;
48945;SDS011;34999;50.940;3.998;2023-07-29T13:33:27;1.57;;;1.47;;
48945;SDS011;34999;50.940;3.998;2023-07-29T13:35:55;1.20;;;1.20;;
48945;SDS011;34999;50.940;3.998;2023-07-29T13:38:23;1.40;;;1.40;;
48945;SDS011;34999;50.940;3.998;2023-07-29T13:40:53;4.27;;;1.57;;
48945;SDS011;34999;50.940;3.998;2023-07-29T13:43:21;1.40;;;1.40;;
48945;SDS011;34999;50.940;3.998;2023-07-29T13:45:50;1.50;;;1.50;;
48945;SDS011;34999;50.940;3.998;2023-07-29T13:48:18;1.50;;;1.50;;
48945;SDS011;34999;50.940;3.998;2023-07-29T13:50:46;1.60;;;1.60;;
48945;SDS011;34999;50.940;3.998;2023-07-29T13:53:15;1.50;;;1.40;;
48945;SDS011;34999;50.940;3.998;2023-07-29T13:55:43;1.50;;;1.50;;
48945;SDS011;34999;50.940;3.998;2023-07-29T13:58:13;1.60;;;1.50;;
48945;SDS011;34999;50.940;3.998;2023-07-29T14:00:41;1.80;;;1.70;;
48945;SDS011;34999;50.940;3.998;2023-07-29T14:03:09;1.40;;;1.40;;
48945;SDS011;34999;50.940;3.998;2023-07-29T14:05:38;1.40;;;1.40;;
48945;SDS011;34999;50.940;3.998;2023-07-29T14:08:07;1.80;;;1.70;;
48945;SDS011;34999;50.940;3.998;2023-07-29T14:10:35;1.50;;;1.50;;
48945;SDS011;34999;50.940;3.998;2023-07-29T14:13:04;1.50;;;1.50;;
48945;SDS011;34999;50.940;3.998;2023-07-29T14:15:34;1.50;;;1.50;;
48945;SDS011;34999;50.940;3.998;2023-07-29T14:18:02;1.90;;;1.80;;
48945;SDS011;34999;50.940;3.998;2023-07-29T14:20:31;1.90;;;1.80;;
48945;SDS011;34999;50.940;3.998;2023-07-29T14:23:00;1.80;;;1.70;;
48945;SDS011;34999;50.940;3.998;2023-07-29T14:25:28;1.60;;;1.60;;
48945;SDS011;34999;50.940;3.998;2023-07-29T14:27:56;1.60;;;1.60;;
48945;SDS011;34999;50.940;3.998;2023-07-29T14:30:25;1.73;;;1.67;;
48945;SDS011;34999;50.940;3.998;2023-07-29T14:32:54;1.50;;;1.50;;
48945;SDS011;34999;50.940;3.998;2023-07-29T14:35:23;1.63;;;1.63;;
48945;SDS011;34999;50.940;3.998;2023-07-29T14:37:52;1.90;;;1.80;;
48945;SDS011;34999;50.940;3.998;2023-07-29T14:40:20;2.10;;;1.57;;
48945;SDS011;34999;50.940;3.998;2023-07-29T14:42:48;1.80;;;1.80;;
48945;SDS011;34999;50.940;3.998;2023-07-29T14:45:17;1.50;;;1.40;;
48945;SDS011;34999;50.940;3.998;2023-07-29T14:47:45;1.90;;;1.80;;
48945;SDS011;34999;50.940;3.998;2023-07-29T14:50:15;1.50;;;1.50;;
48945;SDS011;34999;50.940;3.998;2023-07-29T14:52:43;2.20;;;1.73;;
48945;SDS011;34999;50.940;3.998;2023-07-29T14:55:12;1.50;;;1.50;;
48945;SDS011;34999;50.940;3.998;2023-07-29T14:57:40;1.60;;;1.50;;
48945;SDS011;34999;50.940;3.998;2023-07-29T15:00:09;1.50;;;1.50;;
48945;SDS011;34999;50.940;3.998;2023-07-29T15:02:38;1.63;;;1.50;;
48945;SDS011;34999;50.940;3.998;2023-07-29T15:05:07;1.40;;;1.30;;